createdAt,value
2018-12-18T00:01:18.670Z,98528.13
2018-12-18T00:03:46.187Z,98523.15
2018-12-18T00:06:13.699Z,98526.36
2018-12-18T00:08:41.194Z,98523.52
2018-12-18T00:11:10.370Z,98526.00
2018-12-18T00:13:37.886Z,98520.52
2018-12-18T00:16:05.389Z,98521.94
2018-12-18T00:18:34.911Z,98510.23
2018-12-18T00:21:02.426Z,98515.20
2018-12-18T00:23:29.929Z,98510.41
2018-12-18T00:25:57.465Z,98500.67
2018-12-18T00:28:24.941Z,98499.08
2018-12-18T00:30:52.412Z,98497.29
2018-12-18T00:33:19.899Z,98500.84
2018-12-18T00:35:47.418Z,98497.67
2018-12-18T00:38:14.937Z,98498.36
2018-12-18T00:40:42.422Z,98505.80
2018-12-18T00:43:09.945Z,98502.63
2018-12-18T00:45:37.529Z,98498.02
2018-12-18T00:48:05.025Z,98503.17
2018-12-18T00:50:32.548Z,98506.17
2018-12-18T00:53:00.042Z,98505.84
2018-12-18T00:55:27.545Z,98503.33
2018-12-18T00:57:55.039Z,98506.34
2018-12-18T01:00:22.531Z,98509.75
2018-12-18T01:02:50.012Z,98506.21
2018-12-18T01:05:17.499Z,98505.84
2018-12-18T01:07:45.009Z,98509.77
2018-12-18T01:10:12.500Z,98509.75
2018-12-18T01:12:40.011Z,98517.00
2018-12-18T01:15:07.502Z,98518.97
2018-12-18T01:17:34.977Z,98520.20
2018-12-18T01:20:02.451Z,98524.48
2018-12-18T01:22:30.030Z,98520.91
2018-12-18T01:24:57.558Z,98518.80
2018-12-18T01:27:25.091Z,98522.87
2018-12-18T01:29:52.575Z,98513.30
2018-12-18T01:32:20.062Z,98514.35
2018-12-18T01:34:47.604Z,98510.45
2018-12-18T01:37:15.118Z,98510.97
2018-12-18T01:39:42.605Z,98508.52
2018-12-18T01:42:10.140Z,98515.44
2018-12-18T01:44:37.609Z,98508.32
2018-12-18T01:47:05.114Z,98508.70
2018-12-18T01:49:32.596Z,98507.63
2018-12-18T01:52:00.111Z,98502.47
2018-12-18T01:54:27.615Z,98501.23
2018-12-18T01:56:55.104Z,98506.38
2018-12-18T01:59:22.610Z,98499.64
2018-12-18T02:01:50.086Z,98497.52
2018-12-18T02:04:17.603Z,98498.39
2018-12-18T02:06:45.093Z,98502.14
2018-12-18T02:09:14.130Z,98499.45
2018-12-18T02:11:41.686Z,98495.56
2018-12-18T02:14:09.169Z,98500.16
2018-12-18T02:16:36.692Z,98499.45
2018-12-18T02:19:04.190Z,98489.00
2018-12-18T02:21:31.682Z,98498.57
2018-12-18T02:23:59.231Z,98490.97
2018-12-18T02:26:26.814Z,98493.98
2018-12-18T02:28:54.322Z,98489.20
2018-12-18T02:31:21.841Z,98490.77
2018-12-18T02:33:49.365Z,98481.22
2018-12-18T02:36:16.866Z,98483.87
2018-12-18T02:38:44.367Z,98482.98
2018-12-18T02:41:11.860Z,98479.60
2018-12-18T02:43:39.434Z,98484.41
2018-12-18T02:46:06.980Z,98478.00
2018-12-18T02:48:34.552Z,98485.45
2018-12-18T02:51:02.090Z,98479.59
2018-12-18T02:53:29.596Z,98478.53
2018-12-18T02:55:57.089Z,98480.32
2018-12-18T02:58:24.601Z,98476.23
2018-12-18T03:00:52.094Z,98469.64
2018-12-18T03:03:19.587Z,98485.44
2018-12-18T03:05:47.102Z,98480.64
2018-12-18T03:08:14.591Z,98479.95
2018-12-18T03:10:42.094Z,98487.05
2018-12-18T03:13:09.622Z,98493.27
2018-12-18T03:15:37.140Z,98486.88
2018-12-18T03:18:04.613Z,98484.76
2018-12-18T03:20:32.101Z,98482.28
2018-12-18T03:22:59.632Z,98475.19
2018-12-18T03:25:27.108Z,98464.70
2018-12-18T03:27:54.641Z,98461.71
2018-12-18T03:30:22.120Z,98457.61
2018-12-18T03:32:50.145Z,98448.96
2018-12-18T03:35:17.636Z,98446.84
2018-12-18T03:37:45.156Z,98448.24
2018-12-18T03:40:12.644Z,98447.35
2018-12-18T03:42:40.143Z,98443.64
2018-12-18T03:45:07.642Z,98441.17
2018-12-18T03:47:35.151Z,98448.80
2018-12-18T03:50:02.678Z,98455.00
2018-12-18T03:52:30.274Z,98476.25
2018-12-18T03:54:57.786Z,98473.59
2018-12-18T03:57:25.314Z,98470.92
2018-12-18T03:59:52.870Z,98469.14
2018-12-18T04:02:20.372Z,98458.71
2018-12-18T04:04:47.867Z,98450.72
2018-12-18T04:07:15.362Z,98440.45
2018-12-18T04:09:42.893Z,98447.88
2018-12-18T04:12:12.442Z,98441.50
2018-12-18T04:14:39.976Z,98455.16
2018-12-18T04:17:07.491Z,98453.20
2018-12-18T04:19:35.099Z,98447.56
2018-12-18T04:22:02.605Z,98449.67
2018-12-18T04:24:30.137Z,98445.77
2018-12-18T04:26:57.655Z,98445.95
2018-12-18T04:29:25.283Z,98447.89
2018-12-18T04:31:52.781Z,98451.44
2018-12-18T04:34:20.307Z,98453.73
2018-12-18T04:36:47.952Z,98456.75
2018-12-18T04:39:15.481Z,98454.63
2018-12-18T04:41:43.165Z,98448.95
2018-12-18T04:44:10.662Z,98442.20
2018-12-18T04:46:38.193Z,98442.92
2018-12-18T04:49:05.668Z,98449.13
2018-12-18T04:51:33.186Z,98447.02
2018-12-18T04:54:00.822Z,98445.77
2018-12-18T04:56:28.311Z,98445.94
2018-12-18T04:58:55.823Z,98448.58
2018-12-18T05:01:23.292Z,98449.64
2018-12-18T05:03:50.810Z,98450.70
2018-12-18T05:06:18.330Z,98448.91
2018-12-18T05:08:45.838Z,98455.47
2018-12-18T05:11:13.436Z,98457.41
2018-12-18T05:13:40.936Z,98458.28
2018-12-18T05:16:08.464Z,98459.54
2018-12-18T05:18:35.955Z,98463.78
2018-12-18T05:21:03.452Z,98465.54
2018-12-18T05:23:30.934Z,98471.22
2018-12-18T05:25:59.501Z,98130.32
2018-12-18T05:28:27.000Z,98467.66
2018-12-18T05:30:54.491Z,98472.81
2018-12-18T05:33:21.984Z,98478.98
2018-12-18T05:35:49.490Z,98486.22
2018-12-18T05:38:16.999Z,98470.47
2018-12-18T05:40:44.473Z,98470.30
2018-12-18T05:43:11.963Z,98468.19
2018-12-18T05:45:39.486Z,98464.45
2018-12-18T05:48:06.970Z,98466.07
2018-12-18T05:50:34.446Z,98471.03
2018-12-18T05:53:01.953Z,98474.38
2018-12-18T05:55:29.426Z,97997.06
2018-12-18T05:57:56.950Z,98477.73
2018-12-18T06:00:24.442Z,98469.05
2018-12-18T06:02:51.925Z,98469.61
2018-12-18T06:05:19.425Z,98472.25
2018-12-18T06:07:46.911Z,98476.14
2018-12-18T06:10:14.409Z,98479.86
2018-12-18T06:12:41.902Z,98482.15
2018-12-18T06:15:09.383Z,98484.25
2018-12-18T06:17:36.868Z,98484.61
2018-12-18T06:20:04.642Z,98490.59
2018-12-18T06:22:32.142Z,98493.60
2018-12-18T06:24:59.663Z,98502.26
2018-12-18T06:27:27.226Z,98497.41
2018-12-18T06:29:54.704Z,98492.75
2018-12-18T06:32:22.184Z,98487.93
2018-12-18T06:34:49.677Z,98487.31
2018-12-18T06:37:17.153Z,98480.91
2018-12-18T06:39:44.640Z,98480.50
2018-12-18T06:42:12.163Z,98479.61
2018-12-18T06:44:39.642Z,98484.00
2018-12-18T06:47:07.121Z,98476.87
2018-12-18T06:49:34.634Z,98485.27
2018-12-18T06:52:02.119Z,98474.77
2018-12-18T06:54:29.650Z,98470.64
2018-12-18T06:56:57.143Z,98462.55
2018-12-18T06:59:24.666Z,98475.82
2018-12-18T07:01:52.159Z,98474.39
2018-12-18T07:04:19.642Z,98473.58
2018-12-18T07:06:47.163Z,98477.28
2018-12-18T07:09:14.686Z,98479.46
2018-12-18T07:11:42.206Z,98478.56
2018-12-18T07:14:09.705Z,98475.75
2018-12-18T07:16:37.202Z,98472.23
2018-12-18T07:19:04.739Z,98467.80
2018-12-18T07:21:32.235Z,98467.47
2018-12-18T07:23:59.772Z,98473.35
2018-12-18T07:26:27.274Z,98470.02
2018-12-18T07:31:28.624Z,98473.66
2018-12-18T07:33:56.127Z,98468.00
2018-12-18T07:36:23.622Z,98467.13
2018-12-18T07:38:51.119Z,98469.76
2018-12-18T07:41:18.618Z,98438.91
2018-12-18T07:43:46.154Z,98468.33
2018-12-18T07:46:13.630Z,98468.33
2018-12-18T07:48:41.145Z,98464.44
2018-12-18T07:51:08.647Z,98469.42
2018-12-18T07:53:36.155Z,98468.89
2018-12-18T07:56:03.632Z,98468.89
2018-12-18T07:58:31.122Z,98469.42
2018-12-18T08:00:58.642Z,98462.52
2018-12-18T08:03:26.185Z,98461.81
2018-12-18T08:05:53.680Z,98458.96
2018-12-18T08:08:21.333Z,98459.67
2018-12-18T08:10:48.881Z,98456.48
2018-12-18T08:13:16.383Z,98452.06
2018-12-18T08:15:43.895Z,98456.19
2018-12-18T08:18:11.379Z,98452.50
2018-12-18T08:20:38.901Z,98455.73
2018-12-18T08:23:06.434Z,98469.55
2018-12-18T08:25:33.958Z,98433.64
2018-12-18T08:28:01.481Z,98450.03
2018-12-18T08:30:28.998Z,98453.27
2018-12-18T08:35:36.282Z,98449.23
2018-12-18T08:37:59.965Z,98442.02
2018-12-18T08:40:27.441Z,98440.95
2018-12-18T08:42:54.964Z,98434.41
2018-12-18T08:45:22.434Z,98439.39
2018-12-18T08:47:49.937Z,98436.05
2018-12-18T08:50:17.518Z,98436.75
2018-12-18T08:52:45.016Z,98433.75
2018-12-18T08:55:12.494Z,98426.16
2018-12-18T08:57:40.003Z,98424.20
2018-12-18T09:00:08.325Z,98423.15
2018-12-18T09:02:35.818Z,98420.16
2018-12-18T09:05:04.690Z,98427.23
2018-12-18T09:07:32.199Z,98425.48
2018-12-18T09:09:59.671Z,98425.84
2018-12-18T09:12:27.149Z,98427.08
2018-12-18T09:14:57.735Z,98429.56
2018-12-18T09:17:30.830Z,98428.88
2018-12-18T09:19:58.379Z,98426.56
2018-12-18T09:22:25.930Z,98422.48
2018-12-18T09:24:53.491Z,98417.19
2018-12-18T09:27:21.072Z,98417.01
2018-12-18T09:29:48.613Z,98415.97
2018-12-18T09:32:16.184Z,98414.39
2018-12-18T09:34:43.725Z,98409.79
2018-12-18T09:37:11.278Z,98408.19
2018-12-18T09:39:42.223Z,98406.97
2018-12-18T09:42:15.425Z,98398.48
2018-12-18T09:44:43.041Z,98406.45
2018-12-18T09:47:10.583Z,98409.08
2018-12-18T09:49:38.125Z,98408.37
2018-12-18T09:52:05.657Z,98403.23
2018-12-18T09:54:33.231Z,98395.82
2018-12-18T09:57:00.787Z,98388.16
2018-12-18T09:59:28.303Z,98380.35
2018-12-18T10:01:55.900Z,98377.70
2018-12-18T10:04:23.409Z,98380.16
2018-12-18T10:06:50.980Z,98379.61
2018-12-18T10:09:18.495Z,98382.44
2018-12-18T10:11:46.021Z,98392.74
2018-12-18T10:14:13.590Z,98392.74
2018-12-18T10:16:41.132Z,98383.53
2018-12-18T10:19:08.642Z,98387.23
2018-12-18T10:21:36.176Z,98391.16
2018-12-18T10:24:03.726Z,98231.34
2018-12-18T10:26:31.254Z,98393.09
2018-12-18T10:28:58.812Z,98380.68
2018-12-18T10:31:26.464Z,98383.85
2018-12-18T10:33:53.990Z,98378.34
2018-12-18T10:36:21.524Z,98379.92
2018-12-18T10:38:49.084Z,98372.27
2018-12-18T10:41:16.598Z,98364.59
2018-12-18T10:43:44.161Z,98364.55
2018-12-18T10:46:11.702Z,98355.63
2018-12-18T10:48:39.238Z,98357.90
2018-12-18T10:51:06.785Z,98354.63
2018-12-18T10:53:34.307Z,98356.19
2018-12-18T10:56:01.817Z,98354.70
2018-12-18T10:58:29.349Z,98355.36
2018-12-18T11:01:02.620Z,98355.98
2018-12-18T11:03:30.162Z,98358.78
2018-12-18T11:05:57.712Z,98350.74
2018-12-18T11:08:25.262Z,98351.97
2018-12-18T11:10:52.809Z,98350.00
2018-12-18T11:13:20.367Z,98347.74
2018-12-18T11:15:47.882Z,98346.33
2018-12-18T11:18:15.433Z,98343.28
2018-12-18T11:20:42.997Z,98320.90
2018-12-18T11:23:10.555Z,98306.47
2018-12-18T11:25:38.110Z,98300.06
2018-12-18T11:28:05.636Z,98299.66
2018-12-18T11:30:33.175Z,98295.03
2018-12-18T11:33:00.731Z,98295.91
2018-12-18T11:35:28.283Z,98295.53
2018-12-18T11:37:55.819Z,98297.03
2018-12-18T11:40:23.395Z,98299.83
2018-12-18T11:42:50.955Z,98290.32
2018-12-18T11:45:18.494Z,98278.95
2018-12-18T11:47:46.057Z,98270.59
2018-12-18T11:50:13.618Z,98259.22
2018-12-18T11:52:41.168Z,98247.87
2018-12-18T11:55:08.724Z,98236.09
2018-12-18T11:57:36.265Z,98232.95
2018-12-18T12:00:05.323Z,98232.84
2018-12-18T12:02:32.873Z,98234.39
2018-12-18T12:05:00.410Z,98244.25
2018-12-18T12:07:27.970Z,98240.75
2018-12-18T12:09:55.553Z,98239.39
2018-12-18T12:12:23.103Z,98235.98
2018-12-18T12:14:50.828Z,98233.28
2018-12-18T12:17:18.448Z,98238.74
2018-12-18T12:19:46.105Z,98235.49
2018-12-18T12:22:13.668Z,98227.59
2018-12-18T12:24:41.209Z,98218.78
2018-12-18T12:27:14.443Z,98221.94
2018-12-18T12:29:41.981Z,98228.45
2018-12-18T12:32:09.537Z,98232.59
2018-12-18T12:34:37.099Z,98229.62
2018-12-18T12:37:04.662Z,98224.14
2018-12-18T12:39:32.209Z,98223.43
2018-12-18T12:41:59.744Z,98221.38
2018-12-18T12:44:27.296Z,98219.05
2018-12-18T12:46:54.858Z,98209.10
2018-12-18T12:49:24.386Z,98196.73
2018-12-18T12:51:51.919Z,98190.86
2018-12-18T12:54:19.480Z,98189.80
2018-12-18T12:56:47.022Z,98183.64
2018-12-18T12:59:14.564Z,98184.63
2018-12-18T13:01:42.394Z,98126.91
2018-12-18T13:04:09.997Z,98172.84
2018-12-18T13:06:37.631Z,97978.41
2018-12-18T13:09:06.581Z,98152.14
2018-12-18T13:11:34.174Z,98144.36
2018-12-18T13:14:01.741Z,98142.41
2018-12-18T13:16:29.319Z,98136.42
2018-12-18T13:18:56.891Z,98125.07
2018-12-18T13:21:24.441Z,98116.91
2018-12-18T13:23:51.973Z,98115.31
2018-12-18T13:26:19.557Z,98105.72
2018-12-18T13:28:47.122Z,98090.30
2018-12-18T13:31:14.664Z,98083.51
2018-12-18T13:33:42.202Z,98081.16
2018-12-18T13:36:09.774Z,98070.31
2018-12-18T13:38:37.304Z,98074.20
2018-12-18T13:41:04.882Z,98083.80
2018-12-18T13:43:32.443Z,98075.77
2018-12-18T13:46:00.008Z,98065.28
2018-12-18T13:48:27.564Z,98058.69
2018-12-18T13:50:55.168Z,98055.34
2018-12-18T13:53:22.727Z,98051.95
2018-12-18T13:55:50.282Z,98050.05
2018-12-18T13:58:17.872Z,98051.98
2018-12-18T14:00:45.417Z,98055.95
2018-12-18T14:03:12.970Z,98054.55
2018-12-18T14:05:40.515Z,98051.42
2018-12-18T14:08:08.147Z,98043.64
2018-12-18T14:10:35.729Z,98040.61
2018-12-18T14:13:03.311Z,98042.75
2018-12-18T14:15:30.907Z,98032.80
2018-12-18T14:17:58.433Z,98035.10
2018-12-18T14:20:26.851Z,98029.39
2018-12-18T14:22:54.471Z,98028.31
2018-12-18T14:25:22.041Z,98033.80
2018-12-18T14:27:49.572Z,98033.13
2018-12-18T14:30:17.154Z,98035.55
2018-12-18T14:32:44.693Z,98039.66
2018-12-18T14:35:12.232Z,98039.69
2018-12-18T14:37:39.934Z,98042.77
2018-12-18T14:40:07.538Z,98036.80
2018-12-18T14:42:35.158Z,98034.89
2018-12-18T14:45:02.757Z,98049.31
2018-12-18T14:47:30.324Z,98052.91
2018-12-18T14:49:58.202Z,98046.55
2018-12-18T14:52:25.804Z,98046.28
2018-12-18T14:54:53.378Z,98041.18
2018-12-18T14:57:21.195Z,98038.77
2018-12-18T14:59:48.766Z,98039.31
2018-12-18T15:02:16.373Z,98032.45
2018-12-18T15:04:44.236Z,98030.70
2018-12-18T15:07:11.965Z,98031.77
2018-12-18T15:09:39.581Z,98035.17
2018-12-18T15:12:07.293Z,98025.83
2018-12-18T15:14:35.051Z,98026.74
2018-12-18T15:17:02.608Z,98011.34
2018-12-18T15:19:30.157Z,98017.39
2018-12-18T15:21:57.733Z,98012.50
2018-12-18T15:24:25.384Z,98011.80
2018-12-18T15:26:53.128Z,98012.52
2018-12-18T15:29:20.756Z,98010.61
2018-12-18T15:31:48.428Z,98011.84
2018-12-18T15:34:16.055Z,98016.08
2018-12-18T15:36:43.627Z,98010.94
2018-12-18T15:39:11.387Z,98011.28
2018-12-18T15:41:39.006Z,98009.70
2018-12-18T15:44:06.777Z,98015.00
2018-12-18T15:46:34.433Z,98019.23
2018-12-18T15:49:02.035Z,98011.45
2018-12-18T15:51:29.647Z,98003.81
2018-12-18T15:53:57.985Z,98003.49
2018-12-18T15:56:25.507Z,98009.88
2018-12-18T15:58:53.067Z,98015.00
2018-12-18T16:01:20.675Z,98014.11
2018-12-18T16:03:48.261Z,98015.19
2018-12-18T16:06:15.846Z,98013.42
2018-12-18T16:08:43.409Z,98011.80
2018-12-18T16:11:10.915Z,98010.22
2018-12-18T16:13:38.467Z,98007.58
2018-12-18T16:16:06.116Z,98010.06
2018-12-18T16:18:33.731Z,98014.00
2018-12-18T16:21:01.244Z,98015.41
2018-12-18T16:23:28.779Z,98013.62
2018-12-18T16:25:56.441Z,98007.58
2018-12-18T16:28:24.006Z,98006.91
2018-12-18T16:30:51.548Z,98010.06
2018-12-18T16:33:19.136Z,98005.27
2018-12-18T16:35:46.688Z,98002.08
2018-12-18T16:38:14.212Z,98007.23
2018-12-18T16:40:41.808Z,98005.99
2018-12-18T16:43:09.378Z,98000.13
2018-12-18T16:45:37.040Z,97997.47
2018-12-18T16:48:04.606Z,97993.75
2018-12-18T16:50:32.129Z,97995.55
2018-12-18T16:52:59.682Z,97996.06
2018-12-18T16:55:27.209Z,97990.94
2018-12-18T16:57:54.746Z,97991.10
2018-12-18T17:00:22.292Z,97981.02
2018-12-18T17:02:49.897Z,97985.46
2018-12-18T17:05:17.423Z,97984.75
2018-12-18T17:07:45.057Z,97989.53
2018-12-18T17:10:12.575Z,97992.74
2018-12-18T17:12:42.163Z,97987.23
2018-12-18T17:15:09.745Z,97981.20
2018-12-18T17:17:37.296Z,97978.20
2018-12-18T17:20:05.842Z,97974.50
2018-12-18T17:22:33.370Z,97977.20
2018-12-18T17:25:00.944Z,97970.61
2018-12-18T17:27:28.492Z,97790.83
2018-12-18T17:29:56.091Z,97970.08
2018-12-18T17:32:23.651Z,97962.47
2018-12-18T17:34:51.225Z,97956.97
2018-12-18T17:37:18.792Z,97952.55
2018-12-18T17:39:46.334Z,97955.55
2018-12-18T17:42:14.024Z,97938.52
2018-12-18T17:44:41.553Z,97954.12
2018-12-18T17:47:09.155Z,97951.80
2018-12-18T17:49:36.729Z,97953.05
2018-12-18T17:52:04.278Z,97968.63
2018-12-18T17:54:31.869Z,97964.88
2018-12-18T17:56:59.426Z,97960.98
2018-12-18T17:59:26.936Z,97968.59
2018-12-18T18:01:54.492Z,97962.89
2018-12-18T18:04:22.035Z,97963.63
2018-12-18T18:06:49.665Z,97970.01
2018-12-18T18:09:17.183Z,97404.02
2018-12-18T18:11:44.717Z,97966.47
2018-12-18T18:14:12.288Z,97971.81
2018-12-18T18:16:39.803Z,97968.63
2018-12-18T18:19:07.335Z,97978.45
2018-12-18T18:21:34.814Z,97983.81
2018-12-18T18:24:02.395Z,97987.16
2018-12-18T18:26:29.913Z,97987.39
2018-12-18T18:28:57.476Z,97984.76
2018-12-18T18:31:24.987Z,97985.16
2018-12-18T18:33:52.530Z,97985.67
2018-12-18T18:36:20.094Z,97991.87
2018-12-18T18:38:47.621Z,97986.16
2018-12-18T18:41:15.138Z,97984.74
2018-12-18T18:43:42.723Z,97982.36
2018-12-18T18:46:10.305Z,97982.52
2018-12-18T18:48:37.831Z,97978.70
2018-12-18T18:51:05.411Z,97980.69
2018-12-18T18:53:32.971Z,97978.95
2018-12-18T18:56:00.965Z,97979.31
2018-12-18T18:58:36.242Z,96978.59
2018-12-18T19:01:03.799Z,97974.41
2018-12-18T19:03:31.320Z,97971.21
2018-12-18T19:05:58.839Z,97971.38
2018-12-18T19:08:26.369Z,97962.50
2018-12-18T19:10:53.915Z,97957.91
2018-12-18T19:13:21.437Z,97955.48
2018-12-18T19:15:48.997Z,97957.57
2018-12-18T19:18:16.511Z,97951.09
2018-12-18T19:20:44.043Z,97942.77
2018-12-18T19:23:11.581Z,97936.05
2018-12-18T19:25:39.080Z,97896.72
2018-12-18T19:28:07.093Z,97931.84
2018-12-18T19:30:34.592Z,97937.88
2018-12-18T19:33:02.115Z,97921.78
2018-12-18T19:35:29.696Z,97913.66
2018-12-18T19:38:03.058Z,97912.98
2018-12-18T19:40:26.695Z,97911.41
2018-12-18T19:42:54.166Z,97898.69
2018-12-18T19:45:21.653Z,97908.77
2018-12-18T19:47:49.274Z,97908.77
2018-12-18T19:50:16.859Z,97913.89
2018-12-18T19:52:44.392Z,97927.30
2018-12-18T19:55:11.904Z,97927.12
2018-12-18T19:57:39.448Z,97917.20
2018-12-18T20:00:09.972Z,97912.08
2018-12-18T20:02:37.450Z,97910.11
2018-12-18T20:05:05.854Z,97906.79
2018-12-18T20:07:33.394Z,97907.14
2018-12-18T20:10:00.972Z,97902.34
2018-12-18T20:12:28.496Z,97904.08
2018-12-18T20:14:56.071Z,97911.34
2018-12-18T20:17:23.615Z,97913.42
2018-12-18T20:19:51.387Z,97905.47
2018-12-18T20:22:18.919Z,97906.15
2018-12-18T20:24:46.466Z,97914.27
2018-12-18T20:27:14.009Z,97910.59
2018-12-18T20:29:41.593Z,97911.26
2018-12-18T20:32:09.104Z,97870.05
2018-12-18T20:34:36.638Z,97908.62
2018-12-18T20:37:04.203Z,97901.94
2018-12-18T20:39:31.726Z,97899.13
2018-12-18T20:41:59.260Z,97905.34
2018-12-18T20:44:26.805Z,97909.44
2018-12-18T20:46:54.350Z,97905.72
2018-12-18T20:49:21.848Z,97901.45
2018-12-18T20:51:49.344Z,97905.73
2018-12-18T20:54:16.826Z,97910.28
2018-12-18T20:56:44.339Z,97931.17
2018-12-18T20:59:11.877Z,97915.96
2018-12-18T21:01:39.433Z,97908.55
2018-12-18T21:04:07.012Z,97908.80
2018-12-18T21:06:34.558Z,97897.70
2018-12-18T21:09:02.153Z,97889.61
2018-12-18T21:11:29.708Z,97879.75
2018-12-18T21:13:57.243Z,97869.51
2018-12-18T21:16:24.810Z,97868.80
2018-12-18T21:18:52.381Z,97865.30
2018-12-18T21:21:19.918Z,97853.42
2018-12-18T21:23:47.483Z,97840.14
2018-12-18T21:26:15.002Z,97826.02
2018-12-18T21:28:42.639Z,96814.09
2018-12-18T21:31:10.299Z,97818.26
2018-12-18T21:33:37.929Z,97818.24
2018-12-18T21:36:05.517Z,97814.55
2018-12-18T21:38:33.069Z,97809.64
2018-12-18T21:41:00.677Z,97801.88
2018-12-18T21:43:28.217Z,97801.16
2018-12-18T21:45:55.802Z,97799.23
2018-12-18T21:48:23.373Z,97807.52
2018-12-18T21:50:50.852Z,97814.78
2018-12-18T21:53:18.539Z,97828.73
2018-12-18T21:55:46.125Z,97841.61
2018-12-18T21:58:13.697Z,97843.52
2018-12-18T22:00:41.236Z,97834.12
2018-12-18T22:03:08.740Z,97822.47
2018-12-18T22:05:36.547Z,97807.27
2018-12-18T22:08:04.088Z,97806.37
2018-12-18T22:10:31.654Z,97787.28
2018-12-18T22:12:59.233Z,97788.75
2018-12-18T22:15:26.793Z,97789.94
2018-12-18T22:17:54.310Z,97792.59
2018-12-18T22:20:21.873Z,97775.95
2018-12-18T22:22:49.431Z,97762.70
2018-12-18T22:25:17.031Z,97752.79
2018-12-18T22:27:45.509Z,97746.98
2018-12-18T22:30:13.303Z,97742.72
2018-12-18T22:32:40.903Z,97728.24
2018-12-18T22:35:08.568Z,97731.06
2018-12-18T22:37:36.241Z,97791.06
2018-12-18T22:40:04.104Z,97710.03
2018-12-18T22:42:31.635Z,97710.92
2018-12-18T22:44:59.166Z,97708.05
2018-12-18T22:47:26.768Z,97714.97
2018-12-18T22:49:54.294Z,97726.95
2018-12-18T22:52:21.882Z,97736.09
2018-12-18T22:54:49.453Z,97723.13
2018-12-18T22:57:16.996Z,97713.19
2018-12-18T22:59:45.537Z,97720.30
2018-12-18T23:02:16.149Z,97720.97
2018-12-18T23:04:43.734Z,97721.44
2018-12-18T23:07:11.248Z,97720.69
2018-12-18T23:09:38.761Z,97728.47
2018-12-18T23:12:06.270Z,97738.52
2018-12-18T23:14:33.766Z,97746.22
2018-12-18T23:17:01.249Z,97748.86
2018-12-18T23:19:28.726Z,97755.60
2018-12-18T23:21:56.207Z,97747.03
2018-12-18T23:24:23.690Z,97748.06
2018-12-18T23:26:51.193Z,97747.89
2018-12-18T23:29:18.689Z,97746.92
2018-12-18T23:31:46.186Z,97755.09
2018-12-18T23:34:13.667Z,97754.95
2018-12-18T23:36:41.154Z,97745.58
2018-12-18T23:39:08.685Z,97737.77
2018-12-18T23:41:36.728Z,97729.41
2018-12-18T23:44:04.389Z,97727.25
2018-12-18T23:46:31.885Z,97730.45
2018-12-18T23:48:59.394Z,97725.82
2018-12-18T23:51:26.895Z,97714.69
2018-12-18T23:53:54.446Z,97716.64
2018-12-18T23:56:21.951Z,97708.63
2018-12-18T23:58:49.437Z,97703.98
